Time;durP1;ratioP1;P1;durP2;ratioP2;P2;SDS_P1;SDS_P2;PMS_P1;PMS_P2;Temp;Humidity;BMP_temperature;BMP_pressure;BME280_temperature;BME280_humidity;BME280_pressure;Samples;Min_cycle;Max_cycle;Signal;HPM_P1;HPM_P2
2021/04/24 00:00:14;;;;;;;15.30;9.70;;;4.40;99.90;;;;;;5082724;28;20249;-68
2021/04/24 00:02:41;;;;;;;18.60;9.67;;;4.40;99.90;;;;;;5077509;28;20292;-67
2021/04/24 00:05:11;;;;;;;15.93;9.67;;;4.40;99.90;;;;;;5083093;28;20228;-69
2021/04/24 00:07:38;;;;;;;17.57;10.00;;;4.30;99.90;;;;;;5076966;28;20300;-69
2021/04/24 00:10:06;;;;;;;15.93;10.07;;;4.30;99.90;;;;;;5080512;28;20261;-69
2021/04/24 00:12:32;;;;;;;20.03;10.07;;;4.30;99.90;;;;;;5091092;28;20610;-69
2021/04/24 00:14:59;;;;;;;17.13;10.23;;;4.30;99.90;;;;;;5072000;28;20223;-70
2021/04/24 00:17:25;;;;;;;18.73;9.73;;;4.20;99.90;;;;;;5085967;28;20229;-68
2021/04/24 00:19:52;;;;;;;18.07;9.83;;;4.20;99.90;;;;;;5078253;28;20213;-69
2021/04/24 00:22:18;;;;;;;16.87;9.93;;;4.10;99.90;;;;;;5087725;28;20239;-68
2021/04/24 00:24:45;;;;;;;14.90;8.77;;;4.10;99.90;;;;;;5071689;28;20197;-68
2021/04/24 00:27:12;;;;;;;17.53;9.30;;;4.10;99.90;;;;;;5085632;28;20341;-68
2021/04/24 00:29:38;;;;;;;14.57;9.53;;;4.00;99.90;;;;;;5083045;28;20323;-68
2021/04/24 00:32:05;;;;;;;14.93;8.43;;;4.00;99.90;;;;;;5086702;28;20294;-69
2021/04/24 00:34:32;;;;;;;14.77;8.60;;;4.00;99.90;;;;;;5077863;28;20228;-69
2021/04/24 00:36:58;;;;;;;16.77;8.87;;;4.00;99.90;;;;;;5081205;28;20340;-67
2021/04/24 00:39:25;;;;;;;17.17;9.37;;;3.90;99.90;;;;;;5081284;28;20205;-68
2021/04/24 00:41:52;;;;;;;17.17;9.83;;;3.90;99.90;;;;;;5087427;28;20592;-67
2021/04/24 00:44:19;;;;;;;12.40;8.37;;;3.90;99.90;;;;;;5082462;28;20200;-69
2021/04/24 00:46:45;;;;;;;15.47;8.87;;;3.90;99.90;;;;;;5088371;28;20240;-69
2021/04/24 00:49:11;;;;;;;16.30;7.87;;;3.90;99.90;;;;;;5084650;28;20291;-68
2021/04/24 00:51:38;;;;;;;13.67;8.10;;;3.90;99.90;;;;;;5073953;28;20288;-68
2021/04/24 00:54:05;;;;;;;14.97;8.40;;;3.90;99.90;;;;;;5085928;28;20228;-69
2021/04/24 00:56:33;;;;;;;13.10;8.17;;;3.80;99.90;;;;;;5083096;28;20204;-67
2021/04/24 00:59:01;;;;;;;14.47;8.73;;;4.00;99.90;;;;;;5079094;28;20302;-69
2021/04/24 01:01:27;;;;;;;16.40;8.63;;;3.80;99.90;;;;;;5084872;28;20306;-69
2021/04/24 01:03:55;;;;;;;18.10;8.60;;;3.80;99.90;;;;;;5082296;28;20270;-68
2021/04/24 01:06:22;;;;;;;15.70;8.70;;;3.70;99.90;;;;;;5083679;28;20201;-66
2021/04/24 01:08:48;;;;;;;17.07;8.77;;;3.80;99.90;;;;;;5088608;28;20267;-67
2021/04/24 01:11:15;;;;;;;16.13;8.77;;;3.70;99.90;;;;;;5087075;28;20212;-68
2021/04/24 01:13:41;;;;;;;17.93;7.87;;;3.70;99.90;;;;;;5090943;28;20742;-67
2021/04/24 01:16:09;;;;;;;13.53;8.47;;;3.70;99.90;;;;;;5093285;28;20295;-68
2021/04/24 01:18:35;;;;;;;14.33;8.70;;;3.60;99.90;;;;;;5089097;28;20212;-68
2021/04/24 01:21:05;;;;;;;11.63;7.83;;;3.60;99.90;;;;;;5076095;28;20209;-69
2021/04/24 01:23:32;;;;;;;14.63;8.73;;;3.60;99.90;;;;;;5086168;28;20228;-69
2021/04/24 01:26:00;;;;;;;14.90;8.00;;;3.60;99.90;;;;;;5087344;28;20219;-68
2021/04/24 01:28:27;;;;;;;15.90;8.40;;;3.60;99.90;;;;;;5084327;28;20213;-69
2021/04/24 01:30:54;;;;;;;12.37;7.87;;;3.60;99.90;;;;;;5088458;28;20271;-67
2021/04/24 01:33:23;;;;;;;16.17;7.83;;;3.60;99.90;;;;;;5083159;28;20225;-68
2021/04/24 01:35:50;;;;;;;16.30;8.90;;;3.60;99.90;;;;;;5085927;28;20351;-68
2021/04/24 01:38:16;;;;;;;12.60;7.77;;;3.60;99.90;;;;;;5093081;28;20216;-68
2021/04/24 01:40:44;;;;;;;12.73;7.43;;;3.50;99.90;;;;;;5085632;28;20236;-69
2021/04/24 01:43:11;;;;;;;13.53;7.73;;;3.50;99.90;;;;;;5082980;28;20693;-68
2021/04/24 01:45:38;;;;;;;12.40;7.37;;;3.50;99.90;;;;;;5082251;28;20200;-70
2021/04/24 01:48:06;;;;;;;14.87;8.17;;;3.50;99.90;;;;;;5085241;28;20304;-68
2021/04/24 01:50:37;;;;;;;13.33;8.17;;;3.50;99.90;;;;;;5085855;28;20273;-68
2021/04/24 01:53:05;;;;;;;16.17;7.70;;;3.40;99.90;;;;;;5076736;28;20251;-68
2021/04/24 01:55:33;;;;;;;13.23;8.00;;;3.40;99.90;;;;;;5087075;28;20562;-67
2021/04/24 01:58:04;;;;;;;13.57;7.67;;;3.40;99.90;;;;;;5085323;28;20204;-68
2021/04/24 02:00:33;;;;;;;13.50;6.47;;;3.40;99.90;;;;;;5082454;28;20220;-69
2021/04/24 02:03:01;;;;;;;12.57;7.30;;;3.40;99.90;;;;;;5086439;28;20739;-67
2021/04/24 02:05:28;;;;;;;12.90;7.77;;;3.40;99.90;;;;;;5085451;28;20201;-68
2021/04/24 02:07:57;;;;;;;14.67;8.23;;;3.40;99.90;;;;;;5084024;28;20652;-69
2021/04/24 02:10:26;;;;;;;14.63;8.23;;;3.30;99.90;;;;;;5090053;28;20255;-68
2021/04/24 02:12:52;;;;;;;11.37;6.77;;;3.40;99.90;;;;;;5086897;28;20288;-69
2021/04/24 02:15:20;;;;;;;17.83;7.50;;;3.30;99.90;;;;;;5079809;28;20312;-68
2021/04/24 02:17:47;;;;;;;14.83;7.30;;;3.40;99.90;;;;;;5092002;28;20204;-67
2021/04/24 02:20:15;;;;;;;11.37;6.97;;;3.30;99.90;;;;;;5090269;28;20209;-69
2021/04/24 02:22:42;;;;;;;12.87;6.90;;;3.20;99.90;;;;;;5085382;28;20201;-68
2021/04/24 02:25:13;;;;;;;10.03;6.37;;;3.30;99.90;;;;;;5088107;28;20653;-68
2021/04/24 02:27:39;;;;;;;15.53;6.63;;;3.20;99.90;;;;;;5080647;28;20197;-68
2021/04/24 02:30:07;;;;;;;13.17;6.97;;;3.20;99.90;;;;;;5084415;28;20237;-68
2021/04/24 02:32:35;;;;;;;14.97;6.87;;;3.20;99.90;;;;;;5091494;28;20299;-67
2021/04/24 02:35:03;;;;;;;14.07;6.50;;;3.20;99.90;;;;;;5085748;28;20307;-68
2021/04/24 02:37:30;;;;;;;13.03;6.73;;;3.20;99.90;;;;;;5087183;28;20319;-68
2021/04/24 02:39:56;;;;;;;12.37;6.57;;;3.10;99.90;;;;;;5080743;28;20284;-68
2021/04/24 02:42:25;;;;;;;11.93;6.33;;;3.10;99.90;;;;;;5086105;28;20268;-68
2021/04/24 02:44:53;;;;;;;11.57;6.53;;;3.10;99.90;;;;;;5078514;28;20197;-69
2021/04/24 02:47:20;;;;;;;9.97;6.27;;;3.10;99.90;;;;;;5081638;28;20209;-69
2021/04/24 02:49:48;;;;;;;12.57;6.10;;;3.00;99.90;;;;;;5085276;28;20609;-69
2021/04/24 02:52:15;;;;;;;9.03;5.93;;;3.10;99.90;;;;;;5086526;28;20213;-69
2021/04/24 02:54:42;;;;;;;12.13;6.27;;;3.00;99.90;;;;;;5088139;28;20311;-67
2021/04/24 02:57:09;;;;;;;12.57;6.27;;;3.00;99.90;;;;;;5080264;28;20265;-68
2021/04/24 02:59:36;;;;;;;9.83;5.80;;;3.00;99.90;;;;;;5079811;28;20307;-68
2021/04/24 03:02:02;;;;;;;8.50;5.60;;;2.90;99.90;;;;;;5090190;28;20371;-67
2021/04/24 03:04:29;;;;;;;12.93;5.97;;;2.90;99.90;;;;;;5075569;28;20572;-67
2021/04/24 03:06:56;;;;;;;11.03;5.83;;;2.90;99.90;;;;;;5088960;28;20653;-69
2021/04/24 03:09:23;;;;;;;9.90;5.97;;;2.90;99.90;;;;;;5088671;28;20852;-67
2021/04/24 03:11:50;;;;;;;12.30;6.17;;;2.90;99.90;;;;;;5091254;28;20780;-68
2021/04/24 03:14:17;;;;;;;9.93;5.77;;;2.80;99.90;;;;;;5081004;28;20270;-69
2021/04/24 03:16:43;;;;;;;10.53;6.10;;;2.80;99.90;;;;;;5091705;28;20292;-68
2021/04/24 03:19:10;;;;;;;9.40;5.40;;;2.80;99.90;;;;;;5091510;28;20197;-68
2021/04/24 03:21:37;;;;;;;12.60;6.07;;;2.80;99.90;;;;;;5087699;28;20277;-67
2021/04/24 03:24:05;;;;;;;9.07;5.77;;;2.80;99.90;;;;;;5086873;28;20209;-68
2021/04/24 03:26:33;;;;;;;8.27;5.03;;;2.80;99.90;;;;;;5082981;28;20617;-67
2021/04/24 03:28:59;;;;;;;11.17;5.90;;;2.80;99.90;;;;;;5082111;28;20208;-68
2021/04/24 03:31:26;;;;;;;11.10;5.97;;;2.80;99.90;;;;;;5085188;28;20611;-68
2021/04/24 03:33:52;;;;;;;11.00;6.07;;;2.80;99.90;;;;;;5085868;28;20228;-69
2021/04/24 03:36:19;;;;;;;9.10;5.40;;;2.80;99.90;;;;;;5085383;28;20209;-69
2021/04/24 03:38:46;;;;;;;10.07;5.60;;;2.70;99.90;;;;;;5086630;28;20215;-68
2021/04/24 03:41:13;;;;;;;11.20;5.30;;;2.80;99.90;;;;;;5083372;28;20228;-67
2021/04/24 03:43:40;;;;;;;8.73;5.27;;;2.70;99.90;;;;;;5080437;28;20224;-68
2021/04/24 03:46:07;;;;;;;8.87;5.33;;;2.70;99.90;;;;;;5081442;28;20209;-68
2021/04/24 03:48:34;;;;;;;9.77;5.67;;;2.70;99.90;;;;;;5089928;28;20288;-68
2021/04/24 03:51:02;;;;;;;9.43;5.40;;;2.70;99.90;;;;;;5085350;28;20658;-68
2021/04/24 03:53:29;;;;;;;10.63;5.47;;;2.80;99.90;;;;;;5090344;28;20289;-68
2021/04/24 03:55:56;;;;;;;10.37;5.60;;;2.80;99.90;;;;;;5076731;28;20203;-69
2021/04/24 03:58:23;;;;;;;10.20;5.70;;;2.80;99.90;;;;;;5087305;28;20295;-68
2021/04/24 04:00:50;;;;;;;11.33;4.77;;;2.80;99.90;;;;;;5082794;28;20209;-68
2021/04/24 04:03:16;;;;;;;13.57;5.23;;;2.80;99.90;;;;;;5085260;28;20295;-68
2021/04/24 04:05:44;;;;;;;9.10;5.37;;;2.90;99.90;;;;;;5080502;28;20236;-67
2021/04/24 04:08:14;;;;;;;15.30;5.90;;;3.00;99.90;;;;;;5088188;28;20653;-68
2021/04/24 04:10:42;;;;;;;10.33;5.83;;;3.00;99.90;;;;;;5087273;28;20208;-68
2021/04/24 04:13:11;;;;;;;10.80;5.20;;;3.10;99.90;;;;;;5085282;28;20217;-69
2021/04/24 04:15:39;;;;;;;9.17;4.93;;;3.20;99.90;;;;;;5084644;28;20212;-68
2021/04/24 04:18:07;;;;;;;9.67;5.20;;;3.20;99.90;;;;;;5073221;28;20205;-68
2021/04/24 04:20:34;;;;;;;9.13;5.67;;;3.30;99.90;;;;;;5088832;28;20304;-69
2021/04/24 04:23:00;;;;;;;11.30;6.43;;;3.40;99.90;;;;;;5084387;28;20658;-68
2021/04/24 04:25:27;;;;;;;8.23;5.17;;;3.50;99.90;;;;;;5085213;28;20296;-69
2021/04/24 04:27:54;;;;;;;10.37;5.30;;;3.50;99.90;;;;;;5080973;28;20217;-69
2021/04/24 04:30:22;;;;;;;9.30;5.73;;;3.60;99.90;;;;;;5072777;28;20301;-68
2021/04/24 04:32:50;;;;;;;8.40;5.17;;;3.70;99.90;;;;;;5079228;28;20279;-69
2021/04/24 04:35:17;;;;;;;7.87;5.27;;;3.70;99.90;;;;;;5082076;28;20233;-69
2021/04/24 04:37:44;;;;;;;10.60;5.23;;;3.80;99.90;;;;;;5079920;28;20281;-67
2021/04/24 04:40:13;;;;;;;10.43;5.30;;;3.80;99.90;;;;;;5090223;28;20204;-68
2021/04/24 04:42:41;;;;;;;9.07;5.07;;;3.90;99.90;;;;;;5077745;28;20211;-67
2021/04/24 04:45:09;;;;;;;10.83;5.50;;;4.00;99.90;;;;;;5079629;28;20236;-68
2021/04/24 04:47:35;;;;;;;11.77;5.43;;;4.00;99.90;;;;;;5081878;28;20221;-69
2021/04/24 04:50:03;;;;;;;10.57;5.27;;;4.00;99.90;;;;;;5089435;28;20204;-68
2021/04/24 04:52:30;;;;;;;12.03;5.33;;;4.10;99.90;;;;;;5081082;28;20213;-68
2021/04/24 04:54:56;;;;;;;9.13;5.07;;;4.10;99.90;;;;;;5079688;28;20767;-67
2021/04/24 04:57:23;;;;;;;9.87;5.07;;;4.10;99.90;;;;;;5091841;28;20225;-67
2021/04/24 04:59:49;;;;;;;9.20;4.50;;;4.20;99.90;;;;;;5083639;28;20207;-67
2021/04/24 05:02:15;;;;;;;9.07;4.83;;;4.20;99.90;;;;;;5084853;28;20217;-67
2021/04/24 05:04:42;;;;;;;8.63;4.53;;;4.30;99.90;;;;;;5082807;28;20713;-67
2021/04/24 05:07:09;;;;;;;9.83;5.07;;;4.30;99.90;;;;;;5083897;28;20293;-67
2021/04/24 05:09:35;;;;;;;9.03;4.80;;;4.40;99.90;;;;;;5083019;28;20208;-67
2021/04/24 05:12:01;;;;;;;10.87;4.90;;;4.40;99.90;;;;;;5081602;28;20212;-67
2021/04/24 05:14:28;;;;;;;9.30;4.87;;;4.50;99.90;;;;;;5082951;28;20366;-67
2021/04/24 05:16:54;;;;;;;9.87;4.90;;;4.60;99.90;;;;;;5079686;28;20296;-67
2021/04/24 05:19:20;;;;;;;10.27;5.17;;;4.60;99.90;;;;;;5076542;28;20238;-67
2021/04/24 05:21:47;;;;;;;8.00;4.00;;;4.70;99.90;;;;;;5075221;28;20217;-67
2021/04/24 05:24:14;;;;;;;8.53;4.77;;;4.80;99.90;;;;;;5080415;28;20228;-67
2021/04/24 05:26:41;;;;;;;7.53;4.80;;;4.80;99.90;;;;;;5084491;28;20323;-67
2021/04/24 05:29:08;;;;;;;11.57;4.87;;;4.80;99.90;;;;;;5080425;28;20211;-67
2021/04/24 05:31:34;;;;;;;7.63;4.60;;;4.80;99.90;;;;;;5090925;28;20654;-66
2021/04/24 05:34:00;;;;;;;7.77;4.80;;;4.90;99.90;;;;;;5083440;28;20260;-69
2021/04/24 05:36:27;;;;;;;10.53;5.20;;;4.90;99.90;;;;;;5089449;28;20717;-69
2021/04/24 05:38:54;;;;;;;7.33;4.27;;;4.90;99.90;;;;;;5085314;28;20625;-69
2021/04/24 05:41:22;;;;;;;8.43;4.83;;;4.90;99.90;;;;;;5091690;28;20201;-69
2021/04/24 05:43:50;;;;;;;10.03;5.13;;;5.00;99.90;;;;;;5083285;28;20198;-69
2021/04/24 05:46:17;;;;;;;8.50;5.13;;;5.00;99.90;;;;;;5086503;28;20260;-69
2021/04/24 05:48:44;;;;;;;8.73;5.30;;;5.10;99.90;;;;;;5089904;28;20209;-69
2021/04/24 05:51:11;;;;;;;8.10;4.50;;;5.20;99.90;;;;;;5085699;28;20239;-70
2021/04/24 05:53:37;;;;;;;10.27;4.80;;;5.20;99.90;;;;;;5087739;28;20220;-70
2021/04/24 05:56:04;;;;;;;8.73;5.13;;;5.30;99.90;;;;;;5076177;28;20209;-70
2021/04/24 05:58:32;;;;;;;10.83;5.63;;;5.30;99.90;;;;;;5073709;28;20205;-69
2021/04/24 06:00:58;;;;;;;10.20;3.97;;;5.40;99.90;;;;;;5079978;28;20598;-70
2021/04/24 06:03:25;;;;;;;11.30;4.93;;;5.50;99.90;;;;;;5085921;28;20725;-69
2021/04/24 06:05:51;;;;;;;11.47;5.17;;;5.60;99.90;;;;;;5084720;28;20217;-68
2021/04/24 06:08:17;;;;;;;9.30;4.70;;;5.60;99.90;;;;;;5093488;28;20204;-69
2021/04/24 06:10:44;;;;;;;12.27;5.23;;;5.70;99.90;;;;;;5078427;28;20214;-69
2021/04/24 06:13:10;;;;;;;8.03;4.90;;;5.80;99.90;;;;;;5087064;28;20257;-68
2021/04/24 06:15:38;;;;;;;9.50;4.80;;;5.90;99.90;;;;;;5081562;28;20634;-69
2021/04/24 06:18:04;;;;;;;7.83;4.57;;;5.90;99.90;;;;;;5084881;28;20623;-69
2021/04/24 06:20:31;;;;;;;8.10;4.10;;;6.00;99.90;;;;;;5082902;28;20211;-69
2021/04/24 06:22:57;;;;;;;9.27;4.57;;;6.10;99.90;;;;;;5079291;28;20209;-69
2021/04/24 06:25:24;;;;;;;7.47;4.83;;;6.20;99.90;;;;;;5079894;28;20639;-68
2021/04/24 06:27:51;;;;;;;8.07;5.07;;;6.20;99.90;;;;;;5084269;28;20210;-68
2021/04/24 06:30:20;;;;;;;8.27;4.93;;;6.30;99.90;;;;;;5077276;28;20320;-69
2021/04/24 06:32:49;;;;;;;9.13;5.13;;;6.30;99.80;;;;;;5079680;28;20216;-68
2021/04/24 06:35:16;;;;;;;12.90;5.37;;;6.30;99.40;;;;;;5083899;28;20244;-69
2021/04/24 06:37:43;;;;;;;8.93;5.07;;;6.40;99.70;;;;;;5088240;28;20650;-69
2021/04/24 06:40:13;;;;;;;10.80;4.60;;;6.40;99.90;;;;;;5085977;28;20622;-70
2021/04/24 06:42:39;;;;;;;9.33;5.10;;;6.50;99.90;;;;;;5077111;28;20249;-66
2021/04/24 06:45:08;;;;;;;11.00;4.80;;;6.60;99.50;;;;;;5076111;28;20193;-68
2021/04/24 06:47:35;;;;;;;8.33;4.83;;;6.70;99.00;;;;;;5080471;28;20205;-68
2021/04/24 06:50:03;;;;;;;10.80;5.17;;;6.70;98.50;;;;;;5079231;28;20232;-69
2021/04/24 06:52:30;;;;;;;10.27;4.43;;;6.80;98.70;;;;;;5084657;28;20273;-71
2021/04/24 06:54:57;;;;;;;7.57;4.57;;;7.00;98.70;;;;;;5072770;28;20221;-71
2021/04/24 06:57:23;;;;;;;9.43;5.13;;;7.10;98.20;;;;;;5082249;28;20204;-67
2021/04/24 06:59:49;;;;;;;10.13;5.47;;;7.10;97.70;;;;;;5070065;28;20266;-71
2021/04/24 07:02:18;;;;;;;5.07;3.73;;;7.10;97.40;;;;;;5074535;28;20215;-72
2021/04/24 07:04:44;;;;;;;8.47;4.43;;;7.20;97.50;;;;;;5081482;28;20661;-69
2021/04/24 07:07:12;;;;;;;5.10;3.30;;;7.30;97.20;;;;;;5088096;28;20205;-71
2021/04/24 07:09:38;;;;;;;8.40;3.43;;;7.40;96.30;;;;;;5082400;28;20226;-69
2021/04/24 07:12:06;;;;;;;6.90;3.13;;;7.50;95.20;;;;;;5081475;28;20568;-69
2021/04/24 07:14:33;;;;;;;7.30;2.90;;;7.60;95.10;;;;;;5084074;28;20225;-73
2021/04/24 07:16:59;;;;;;;7.73;3.27;;;7.70;94.40;;;;;;5088910;28;20207;-72
2021/04/24 07:19:26;;;;;;;8.00;3.10;;;7.80;93.80;;;;;;5080561;28;20291;-71
2021/04/24 07:21:53;;;;;;;7.97;3.37;;;8.00;93.00;;;;;;5077378;28;20232;-72
2021/04/24 07:24:20;;;;;;;4.50;2.53;;;8.10;92.30;;;;;;5075933;28;20288;-72
2021/04/24 07:26:47;;;;;;;5.17;2.83;;;8.30;91.80;;;;;;5087492;28;20238;-71
2021/04/24 07:29:13;;;;;;;5.07;2.40;;;8.40;91.60;;;;;;5075506;28;20237;-68
2021/04/24 07:31:40;;;;;;;4.40;2.60;;;8.50;90.70;;;;;;5081431;28;20304;-69
2021/04/24 07:34:08;;;;;;;4.27;3.23;;;8.60;90.30;;;;;;5075158;28;20533;-71
2021/04/24 07:36:34;;;;;;;6.30;3.20;;;8.70;88.80;;;;;;5087580;28;20277;-70
2021/04/24 07:39:01;;;;;;;5.00;2.60;;;8.80;88.00;;;;;;5085352;28;20258;-71
2021/04/24 07:41:28;;;;;;;5.00;2.83;;;8.90;85.20;;;;;;5070648;28;20578;-72
2021/04/24 07:43:55;;;;;;;4.47;2.77;;;8.90;84.10;;;;;;5078126;28;20647;-71
2021/04/24 07:46:21;;;;;;;7.13;3.00;;;9.00;83.90;;;;;;5072127;28;20292;-68
2021/04/24 07:48:48;;;;;;;4.47;2.67;;;9.10;83.40;;;;;;5076139;28;20376;-70
2021/04/24 07:51:14;;;;;;;4.80;2.50;;;9.30;82.10;;;;;;5082766;28;20650;-71
2021/04/24 07:53:42;;;;;;;5.97;2.70;;;9.30;80.40;;;;;;5083101;28;20228;-69
2021/04/24 07:56:09;;;;;;;5.53;2.70;;;9.40;79.10;;;;;;5083774;28;20292;-69
2021/04/24 07:58:36;;;;;;;5.03;2.70;;;9.50;78.80;;;;;;5075320;28;20232;-67
2021/04/24 08:01:03;;;;;;;3.97;2.33;;;9.60;78.50;;;;;;5086868;28;20622;-69
2021/04/24 08:03:29;;;;;;;5.77;2.77;;;9.70;77.70;;;;;;5081488;28;20661;-70
2021/04/24 08:05:56;;;;;;;5.27;2.77;;;9.80;77.50;;;;;;5077083;28;20257;-69
2021/04/24 08:08:22;;;;;;;7.50;3.00;;;9.80;76.70;;;;;;5079712;28;20540;-70
2021/04/24 08:10:49;;;;;;;6.23;2.87;;;10.00;75.40;;;;;;5082882;28;20209;-68
2021/04/24 08:13:15;;;;;;;4.13;2.70;;;10.10;74.80;;;;;;5084721;28;20254;-69
2021/04/24 08:15:43;;;;;;;2.73;2.17;;;10.20;74.90;;;;;;5069248;28;20347;-69
2021/04/24 08:18:09;;;;;;;6.93;2.90;;;10.40;73.80;;;;;;5077512;28;20558;-68
2021/04/24 08:20:35;;;;;;;5.97;2.93;;;10.50;72.60;;;;;;5082819;28;20216;-68
2021/04/24 08:23:02;;;;;;;5.50;2.67;;;10.70;72.80;;;;;;5074758;28;20354;-68
2021/04/24 08:25:28;;;;;;;4.13;2.47;;;10.70;72.70;;;;;;5075428;28;20305;-69
2021/04/24 08:27:55;;;;;;;4.67;2.50;;;10.90;73.50;;;;;;5065617;28;20615;-71
2021/04/24 08:30:22;;;;;;;3.60;2.13;;;11.10;73.00;;;;;;5080649;28;20245;-70
2021/04/24 08:32:50;;;;;;;5.67;2.50;;;11.30;72.60;;;;;;5070913;28;20202;-70
2021/04/24 08:35:17;;;;;;;3.90;2.80;;;11.60;71.00;;;;;;5077621;28;20225;-68
2021/04/24 08:37:45;;;;;;;4.33;2.80;;;11.70;70.60;;;;;;5085438;28;20311;-67
2021/04/24 08:40:14;;;;;;;4.30;2.60;;;11.90;70.60;;;;;;5084534;28;20277;-71
2021/04/24 08:42:41;;;;;;;5.13;3.10;;;12.00;69.50;;;;;;5084005;28;20231;-72
2021/04/24 08:45:18;;;;;;;4.97;2.73;;;12.00;70.20;;;;;;5081055;28;21029;-71
2021/04/24 08:47:47;;;;;;;5.83;2.57;;;11.90;68.00;;;;;;5084999;28;20263;-68
2021/04/24 08:50:18;;;;;;;7.37;2.83;;;11.70;67.10;;;;;;5085782;28;20586;-70
2021/04/24 08:52:45;;;;;;;5.67;2.80;;;11.50;68.50;;;;;;5082036;28;20292;-68
2021/04/24 08:55:16;;;;;;;3.63;2.13;;;11.60;69.00;;;;;;5083006;28;20263;-71
2021/04/24 08:57:43;;;;;;;7.30;3.37;;;11.80;68.20;;;;;;5080082;28;20264;-70
2021/04/24 09:00:10;;;;;;;4.00;2.23;;;12.10;67.40;;;;;;5083467;28;20201;-73
2021/04/24 09:02:40;;;;;;;4.20;2.20;;;12.30;66.10;;;;;;5077049;28;20262;-71
2021/04/24 09:05:07;;;;;;;3.73;2.60;;;12.50;64.30;;;;;;5083740;28;20211;-71
2021/04/24 09:07:35;;;;;;;4.13;2.53;;;12.50;63.30;;;;;;5075255;28;20216;-71
2021/04/24 09:10:02;;;;;;;5.13;1.70;;;12.40;62.80;;;;;;5084078;28;20257;-71
2021/04/24 09:12:36;;;;;;;3.33;1.90;;;12.40;60.80;;;;;;5074929;28;20300;-71
2021/04/24 09:15:12;;;;;;;3.27;1.90;;;12.30;60.50;;;;;;5079411;28;20228;-71
2021/04/24 09:18:03;;;;;;;4.23;2.40;;;12.30;59.70;;;;;;5077987;28;20617;-71
2021/04/24 09:20:31;;;;;;;3.70;2.00;;;12.20;58.50;;;;;;5066051;28;20237;-71
2021/04/24 09:23:04;;;;;;;5.33;1.90;;;12.10;58.60;;;;;;5080375;28;20296;-72
2021/04/24 09:25:39;;;;;;;3.47;2.13;;;12.00;58.40;;;;;;5086378;28;20201;-70
2021/04/24 09:28:08;;;;;;;3.27;1.97;;;11.90;58.00;;;;;;5080243;28;20209;-70
2021/04/24 09:30:37;;;;;;;4.10;2.30;;;11.90;58.00;;;;;;5087098;28;20337;-70
2021/04/24 09:33:06;;;;;;;3.27;2.10;;;11.90;58.90;;;;;;5092751;28;20243;-70
2021/04/24 09:35:46;;;;;;;7.17;2.43;;;12.10;59.40;;;;;;5089240;28;20221;-71
2021/04/24 09:38:19;;;;;;;4.23;2.07;;;12.20;59.10;;;;;;5080529;28;20595;-70
2021/04/24 09:41:08;;;;;;;4.63;2.10;;;12.20;59.30;;;;;;5089449;28;20291;-69
2021/04/24 09:43:48;;;;;;;3.10;2.13;;;12.20;59.70;;;;;;5088776;28;20658;-71
2021/04/24 09:46:15;;;;;;;3.13;2.23;;;12.20;59.60;;;;;;5086367;28;20240;-71
2021/04/24 09:48:43;;;;;;;3.80;2.23;;;12.40;59.80;;;;;;5087400;28;20224;-70
2021/04/24 09:51:14;;;;;;;5.50;2.10;;;12.80;59.20;;;;;;5090657;28;20203;-71
2021/04/24 09:53:41;;;;;;;3.93;1.73;;;13.30;57.40;;;;;;5090105;28;20200;-71
2021/04/24 09:56:14;;;;;;;2.73;2.00;;;13.60;56.10;;;;;;5089435;28;20612;-71
2021/04/24 09:58:42;;;;;;;3.10;1.93;;;13.90;55.00;;;;;;5085413;28;20213;-71
2021/04/24 10:01:23;;;;;;;2.67;1.50;;;14.30;54.70;;;;;;5090766;28;20642;-71
2021/04/24 10:03:51;;;;;;;2.33;1.77;;;14.60;51.40;;;;;;5083005;28;20206;-70
2021/04/24 10:06:34;;;;;;;3.00;1.93;;;14.60;49.90;;;;;;5085811;28;20220;-70
2021/04/24 10:09:25;;;;;;;2.50;1.70;;;14.40;49.30;;;;;;5085286;28;20212;-70
2021/04/24 10:12:11;;;;;;;2.63;1.70;;;14.30;48.80;;;;;;5078619;28;20222;-70
2021/04/24 10:14:41;;;;;;;3.63;1.90;;;14.30;48.20;;;;;;5085147;28;20248;-71
2021/04/24 10:17:09;;;;;;;3.23;1.53;;;14.30;48.00;;;;;;5082522;28;20251;-71
2021/04/24 10:19:36;;;;;;;2.63;1.30;;;14.40;47.80;;;;;;5090690;28;20288;-71
2021/04/24 10:22:04;;;;;;;2.87;1.37;;;14.70;48.10;;;;;;5082139;28;20223;-71
2021/04/24 10:24:31;;;;;;;2.63;1.80;;;15.10;47.50;;;;;;5082151;28;20349;-71
2021/04/24 10:26:59;;;;;;;2.30;1.70;;;15.30;46.30;;;;;;5079333;28;20636;-71
2021/04/24 10:29:26;;;;;;;3.27;1.70;;;15.40;45.10;;;;;;5086189;28;20240;-71
2021/04/24 10:31:54;;;;;;;3.40;1.70;;;15.30;45.10;;;;;;5086994;28;20275;-71
2021/04/24 10:34:21;;;;;;;2.93;1.50;;;15.40;45.70;;;;;;5076456;28;20610;-71
2021/04/24 10:36:48;;;;;;;3.10;2.47;;;15.60;45.60;;;;;;5079125;28;20204;-71
2021/04/24 10:39:21;;;;;;;2.70;1.67;;;15.90;47.00;;;;;;5086502;28;20216;-71
2021/04/24 10:41:56;;;;;;;3.03;1.60;;;16.10;45.70;;;;;;5083500;28;20205;-68
2021/04/24 10:44:24;;;;;;;3.10;1.80;;;16.20;44.80;;;;;;5082102;28;20201;-68
2021/04/24 10:46:52;;;;;;;2.23;1.27;;;16.00;43.90;;;;;;5080742;28;20230;-69
2021/04/24 10:49:24;;;;;;;2.33;1.27;;;15.60;43.20;;;;;;5089680;28;20204;-69
2021/04/24 10:52:06;;;;;;;1.47;1.00;;;15.30;42.10;;;;;;5086883;28;20288;-68
2021/04/24 10:54:35;;;;;;;2.50;1.40;;;14.90;42.60;;;;;;5082913;28;20258;-69
2021/04/24 10:57:23;;;;;;;2.00;1.60;;;14.60;41.50;;;;;;5082197;28;20246;-68
2021/04/24 10:59:58;;;;;;;1.77;1.20;;;14.50;42.40;;;;;;5081704;28;20201;-68
2021/04/24 11:02:39;;;;;;;1.97;1.40;;;14.60;42.50;;;;;;5079609;28;20200;-67
2021/04/24 11:05:27;;;;;;;2.87;1.60;;;14.90;41.70;;;;;;5075848;28;20197;-68
2021/04/24 11:08:23;;;;;;;1.97;1.50;;;15.10;41.90;;;;;;5083281;28;20244;-69
2021/04/24 11:10:57;;;;;;;5.10;2.03;;;15.10;43.00;;;;;;5090680;28;20251;-67
2021/04/24 11:13:28;;;;;;;2.13;1.90;;;15.30;43.80;;;;;;5087294;28;20266;-72
2021/04/24 11:15:55;;;;;;;3.37;2.00;;;15.60;43.70;;;;;;5078515;28;21814;-70
2021/04/24 11:18:24;;;;;;;3.43;1.93;;;15.80;43.90;;;;;;5080032;28;20276;-72
2021/04/24 11:20:56;;;;;;;3.23;2.10;;;16.00;45.20;;;;;;5079692;28;20205;-69
2021/04/24 11:23:44;;;;;;;2.13;1.77;;;16.10;44.60;;;;;;5080404;28;20205;-70
2021/04/24 11:26:13;;;;;;;2.30;1.90;;;16.30;43.80;;;;;;5077392;28;20681;-69
2021/04/24 11:29:11;;;;;;;3.80;1.63;;;16.40;42.80;;;;;;5077411;28;20227;-72
2021/04/24 11:32:02;;;;;;;2.07;1.50;;;16.40;40.80;;;;;;5044517;28;20245;-71
2021/04/24 11:34:46;;;;;;;2.10;1.10;;;16.20;40.60;;;;;;5078856;28;20213;-70
2021/04/24 11:37:48;;;;;;;3.03;1.90;;;16.20;40.10;;;;;;5089416;28;20800;-71
2021/04/24 11:40:28;;;;;;;2.83;2.13;;;16.20;40.90;;;;;;5084350;28;20551;-71
2021/04/24 11:43:07;;;;;;;3.43;2.00;;;16.10;41.60;;;;;;5081332;28;20193;-71
2021/04/24 11:46:02;;;;;;;6.50;2.33;;;15.80;42.50;;;;;;5078244;28;20269;-72
2021/04/24 11:49:08;;;;;;;4.07;1.40;;;15.30;43.60;;;;;;5079627;28;20201;-72
2021/04/24 11:51:55;;;;;;;4.83;1.40;;;15.10;44.10;;;;;;5083956;28;20668;-71
2021/04/24 11:54:27;;;;;;;2.77;1.47;;;15.30;44.30;;;;;;5082324;28;20221;-71
2021/04/24 11:56:56;;;;;;;2.30;1.30;;;15.40;43.80;;;;;;5082898;28;20196;-69
2021/04/24 11:59:24;;;;;;;2.47;1.37;;;15.50;42.10;;;;;;5082129;28;20205;-68
2021/04/24 12:01:53;;;;;;;2.70;1.47;;;15.70;41.50;;;;;;5078625;28;20205;-70
2021/04/24 12:04:27;;;;;;;2.80;1.53;;;15.90;41.70;;;;;;5085981;28;20197;-72
2021/04/24 12:07:08;;;;;;;3.23;1.10;;;16.40;40.90;;;;;;5080435;28;20227;-70
2021/04/24 12:09:53;;;;;;;1.10;1.00;;;16.60;37.80;;;;;;5088948;28;20255;-70
2021/04/24 12:12:21;;;;;;;2.20;1.23;;;16.60;36.50;;;;;;5082274;28;20200;-69
2021/04/24 12:14:48;;;;;;;1.57;1.10;;;16.60;36.00;;;;;;5079948;28;20236;-69
2021/04/24 12:17:17;;;;;;;2.60;1.40;;;16.70;35.70;;;;;;5079682;28;20209;-71
2021/04/24 12:19:44;;;;;;;1.57;0.90;;;16.80;36.40;;;;;;5079282;28;20273;-71
2021/04/24 12:22:17;;;;;;;1.50;1.10;;;17.10;35.90;;;;;;5073036;28;20244;-70
2021/04/24 12:24:59;;;;;;;1.60;1.20;;;17.10;35.70;;;;;;5065730;28;20267;-71
2021/04/24 12:27:34;;;;;;;1.30;1.20;;;16.80;35.50;;;;;;5073476;28;20225;-69
2021/04/24 12:30:05;;;;;;;2.00;1.20;;;16.30;35.20;;;;;;5074049;28;20740;-71
2021/04/24 12:32:38;;;;;;;1.93;1.40;;;15.80;35.50;;;;;;5073075;28;20196;-69
2021/04/24 12:35:09;;;;;;;2.10;1.40;;;15.40;36.40;;;;;;5069895;28;20340;-71
2021/04/24 12:37:36;;;;;;;1.80;1.23;;;15.20;36.90;;;;;;5073211;28;20205;-69
2021/04/24 12:40:13;;;;;;;1.23;1.00;;;15.00;37.10;;;;;;5073195;28;20629;-73
2021/04/24 12:42:39;;;;;;;1.80;1.20;;;14.90;37.00;;;;;;5073797;28;20258;-70
2021/04/24 12:45:12;;;;;;;2.40;1.43;;;14.90;36.10;;;;;;5064648;28;20289;-68
2021/04/24 12:47:41;;;;;;;4.83;1.63;;;14.80;36.10;;;;;;5068762;28;20237;-70
2021/04/24 12:50:11;;;;;;;2.10;1.30;;;14.80;36.60;;;;;;5072147;28;20573;-69
2021/04/24 12:52:45;;;;;;;2.77;1.67;;;14.70;36.80;;;;;;5075675;28;20665;-69
2021/04/24 12:55:13;;;;;;;2.20;1.13;;;14.60;36.50;;;;;;5084904;28;20234;-69
2021/04/24 12:57:54;;;;;;;4.20;1.43;;;14.50;36.90;;;;;;5087089;28;20200;-68
2021/04/24 13:00:26;;;;;;;1.47;1.30;;;14.30;36.80;;;;;;5088043;28;20276;-70